Аэропорт: Стригино. Нижний Новгород

ICAO: UWGG

METAR:
2020-06-02 08:00:00
UWGG 020800Z 10006MPS 9999 SCT040 15/04 Q1017 R36R/090070 TEMPO 07006G12MPS
METAR:
2020-06-02 04:50:00
TAF UWGG 020450Z 0206/0306 07005MPS 9999 BKN020 TX15/0212Z TN07/0303Z TEMPO 0206/0218 09006G14MPS -SHRA BKN012CB